Time;durP1;ratioP1;P1;durP2;ratioP2;P2;SDS_P1;SDS_P2;PMS_P1;PMS_P2;Temp;Humidity;BMP_temperature;BMP_pressure;BME280_temperature;BME280_humidity;BME280_pressure;Samples;Min_cycle;Max_cycle;Signal;HPM_P1;HPM_P2
2023/11/26 00:00:29;;;;;;;17.27;9.45;;;;;;;-146.25;100.00;52579.06;2079352;28;35844;-75
2023/11/26 00:01:31;;;;;;;21.25;9.90;;;;;;;-146.25;100.00;52585.16;2086954;28;20030;-76
2023/11/26 00:02:35;;;;;;;19.55;9.63;;;;;;;-146.25;100.00;52548.66;2087815;28;20041;-75
2023/11/26 00:03:37;;;;;;;16.35;9.25;;;;;;;-146.25;100.00;52597.31;2086339;28;36497;-73
2023/11/26 00:04:39;;;;;;;15.18;9.27;;;;;;;-146.25;100.00;52568.94;2079986;28;20045;-74
2023/11/26 00:05:41;;;;;;;16.67;10.40;;;;;;;-146.25;100.00;52593.25;2078757;28;37047;-75
2023/11/26 00:06:45;;;;;;;21.33;10.48;;;;;;;-146.25;100.00;52593.25;2079700;28;32954;-75
2023/11/26 00:07:47;;;;;;;20.38;10.70;;;;;;;-146.25;100.00;52593.25;2079312;28;34691;-75
2023/11/26 00:08:49;;;;;;;19.80;10.63;;;;;;;-146.25;100.00;52595.28;2079476;28;37396;-74
2023/11/26 00:09:50;;;;;;;17.88;10.95;;;;;;;-146.25;100.00;52607.47;2079726;28;20050;-75
2023/11/26 00:10:52;;;;;;;21.30;11.77;;;;;;;-146.25;100.00;52603.41;2079496;28;34660;-75
2023/11/26 00:11:56;;;;;;;20.25;11.38;;;;;;;-146.25;100.00;52585.16;2079790;28;34743;-74
2023/11/26 00:12:59;;;;;;;17.20;10.43;;;;;;;-146.25;100.00;52603.41;2079515;28;35503;-75
2023/11/26 00:14:04;;;;;;;20.98;10.50;;;;;;;-146.25;100.00;52599.34;2080155;28;20115;-74
2023/11/26 00:15:08;;;;;;;22.10;11.52;;;;;;;-146.25;100.00;52595.28;2079059;28;33745;-75
2023/11/26 00:16:10;;;;;;;21.80;11.98;;;;;;;-146.25;100.00;52558.78;2079596;28;20053;-75
2023/11/26 00:17:12;;;;;;;17.60;10.23;;;;;;;-146.25;100.00;52643.97;2078936;28;35929;-74
2023/11/26 00:18:14;;;;;;;17.75;10.80;;;;;;;-146.25;100.00;52566.91;2087028;28;31539;-75
2023/11/26 00:19:16;;;;;;;16.40;9.02;;;;;;;-146.25;100.00;52564.88;2086802;28;34482;-75
2023/11/26 00:20:18;;;;;;;19.05;11.13;;;;;;;-146.25;100.00;52611.50;2079600;28;31792;-74
2023/11/26 00:21:21;;;;;;;25.33;11.88;;;;;;;-146.25;100.00;52603.41;2079359;28;37340;-74
2023/11/26 00:22:27;;;;;;;17.13;9.90;;;;;;;-146.25;100.00;52570.97;2079352;28;34329;-75
2023/11/26 00:23:29;;;;;;;19.30;10.57;;;;;;;-146.25;100.00;52583.13;2079473;28;37185;-74
2023/11/26 00:24:31;;;;;;;17.75;10.80;;;;;;;-146.25;100.00;52639.91;2079635;28;20081;-74
2023/11/26 00:25:32;;;;;;;17.45;10.07;;;;;;;-146.25;100.00;52605.44;2079489;28;36653;-75
2023/11/26 00:26:36;;;;;;;19.67;10.23;;;;;;;-146.25;100.00;52558.78;2079365;28;31279;-74
2023/11/26 00:27:40;;;;;;;21.00;10.40;;;;;;;-146.25;100.00;52603.41;2079322;28;36512;-73
2023/11/26 00:28:44;;;;;;;16.67;9.18;;;;;;;-146.25;100.00;52589.22;2080060;28;20034;-74
2023/11/26 00:29:46;;;;;;;21.08;10.48;;;;;;;-146.25;100.00;52589.22;2087540;28;20763;-73
2023/11/26 00:30:47;;;;;;;16.70;10.18;;;;;;;-146.25;100.00;52589.22;2087502;28;26725;-74
2023/11/26 00:31:49;;;;;;;19.85;9.45;;;;;;;-146.25;100.00;52601.38;2079528;28;25046;-74
2023/11/26 00:32:51;;;;;;;14.00;8.52;;;;;;;-146.25;100.00;52591.25;2087411;28;20042;-74
2023/11/26 00:33:53;;;;;;;14.38;8.85;;;;;;;-146.25;100.00;52613.53;2087271;28;29928;-74
2023/11/26 00:34:55;;;;;;;17.00;8.73;;;;;;;-146.25;100.00;52591.25;2087452;28;29458;-74
2023/11/26 00:35:57;;;;;;;13.45;8.25;;;;;;;-146.25;100.00;52627.75;2081362;28;20823;-72
2023/11/26 00:36:59;;;;;;;12.15;8.70;;;;;;;-146.25;100.00;52623.69;2080902;28;29011;-73
2023/11/26 00:38:01;;;;;;;17.55;7.97;;;;;;;-146.25;100.00;52611.50;2081050;28;29153;-73
2023/11/26 00:39:02;;;;;;;12.15;7.95;;;;;;;-146.25;100.00;52583.13;2081226;28;20878;-74
2023/11/26 00:40:06;;;;;;;17.35;9.27;;;;;;;-146.25;100.00;52550.69;2088024;28;32727;-73
2023/11/26 00:41:08;;;;;;;16.48;8.05;;;;;;;-146.25;100.00;52589.22;2088714;28;20270;-73
2023/11/26 00:42:10;;;;;;;13.88;9.00;;;;;;;-146.25;100.00;52575.00;2080693;28;20084;-73
2023/11/26 00:43:12;;;;;;;14.80;9.15;;;;;;;-146.25;100.00;52613.53;2071237;28;37323;-74
2023/11/26 00:44:16;;;;;;;14.45;8.25;;;;;;;-146.25;100.00;52607.47;2080767;28;20811;-73
2023/11/26 00:45:18;;;;;;;16.35;8.27;;;;;;;-146.25;100.00;52607.47;2080778;28;29843;-73
2023/11/26 00:46:20;;;;;;;17.42;8.55;;;;;;;-146.25;100.00;52603.41;2088226;28;28365;-73
2023/11/26 00:47:21;;;;;;;16.17;8.27;;;;;;;-146.25;100.00;52593.25;2079812;28;29078;-73
2023/11/26 00:48:24;;;;;;;12.65;7.85;;;;;;;-146.25;100.00;52607.47;2080458;28;26391;-72
2023/11/26 00:49:26;;;;;;;13.77;7.88;;;;;;;-146.25;100.00;52562.84;2080559;28;24290;-74
2023/11/26 00:50:27;;;;;;;12.45;6.93;;;;;;;-146.25;100.00;52562.84;2080358;28;26161;-73
2023/11/26 00:51:29;;;;;;;11.95;7.22;;;;;;;-146.25;100.00;52591.25;2080132;28;30815;-73
2023/11/26 00:52:36;;;;;;;15.07;7.97;;;;;;;-146.25;100.00;52573.00;2081162;28;20046;-74
2023/11/26 00:53:38;;;;;;;10.27;6.63;;;;;;;-146.25;100.00;52603.41;2080702;28;28877;-73
2023/11/26 00:54:42;;;;;;;13.82;7.63;;;;;;;-146.25;100.00;52621.66;2080678;28;28344;-73
2023/11/26 00:55:44;;;;;;;12.82;7.85;;;;;;;-146.25;100.00;52575.00;2080546;28;25653;-73
2023/11/26 00:56:47;;;;;;;15.60;7.25;;;;;;;-146.25;100.00;52603.41;2088936;28;20160;-73
2023/11/26 00:57:49;;;;;;;10.25;6.57;;;;;;;-146.25;100.00;52621.66;2088384;28;20172;-73
2023/11/26 00:58:52;;;;;;;11.55;7.00;;;;;;;-146.25;100.00;52601.38;2088096;28;28355;-73
2023/11/26 00:59:56;;;;;;;12.88;6.85;;;;;;;-146.25;100.00;52595.28;2080310;28;20146;-73
2023/11/26 01:00:59;;;;;;;14.18;6.13;;;;;;;-146.25;100.00;52603.41;2080790;28;20026;-73
2023/11/26 01:02:03;;;;;;;14.25;7.78;;;;;;;-146.25;100.00;52591.25;2088081;28;26348;-73
2023/11/26 01:03:06;;;;;;;13.82;7.43;;;;;;;-146.25;100.00;52577.03;2087988;28;26819;-73
2023/11/26 01:04:08;;;;;;;14.02;7.38;;;;;;;-146.25;100.00;52587.19;2088777;28;20119;-73
2023/11/26 01:05:12;;;;;;;10.98;6.55;;;;;;;-146.25;100.00;52595.28;2088002;28;31162;-74
2023/11/26 01:06:14;;;;;;;12.75;7.38;;;;;;;-146.25;100.00;52595.28;2088027;28;33222;-73
2023/11/26 01:07:17;;;;;;;15.77;7.85;;;;;;;-146.25;100.00;52601.38;2087931;28;31196;-73
2023/11/26 01:08:18;;;;;;;13.35;7.05;;;;;;;-146.25;100.00;52643.97;2088008;28;33468;-73
2023/11/26 01:09:20;;;;;;;12.88;7.22;;;;;;;-146.25;100.00;52573.00;2079646;28;34376;-73
2023/11/26 01:10:22;;;;;;;13.15;7.70;;;;;;;-146.25;100.00;52585.16;2080470;28;20925;-73
2023/11/26 01:11:25;;;;;;;13.48;7.30;;;;;;;-146.25;100.00;52631.78;2080744;28;32493;-73
2023/11/26 01:12:27;;;;;;;12.38;7.78;;;;;;;-146.25;100.00;52587.19;2079432;28;28867;-73
2023/11/26 01:13:29;;;;;;;14.35;7.55;;;;;;;-146.25;100.00;52587.19;2080205;28;23885;-73
2023/11/26 01:14:31;;;;;;;13.30;8.13;;;;;;;-146.25;100.00;52579.06;2080820;28;28954;-74
2023/11/26 01:15:33;;;;;;;12.98;6.88;;;;;;;-146.25;100.00;52577.03;2080712;28;21875;-73
2023/11/26 01:16:36;;;;;;;10.60;6.78;;;;;;;-146.25;100.00;52558.78;2080595;28;20052;-73
2023/11/26 01:17:37;;;;;;;11.68;8.07;;;;;;;-146.25;100.00;52615.56;2080478;28;31610;-73
2023/11/26 01:18:40;;;;;;;10.95;7.10;;;;;;;-146.25;100.00;52609.50;2088389;28;20175;-73
2023/11/26 01:19:42;;;;;;;14.13;6.78;;;;;;;-146.25;100.00;52627.75;2079869;28;33972;-73
2023/11/26 01:20:43;;;;;;;15.73;7.10;;;;;;;-146.25;100.00;52601.38;2080377;28;20782;-73
2023/11/26 01:21:45;;;;;;;11.75;6.93;;;;;;;-146.25;100.00;52619.63;2079955;28;27337;-73
2023/11/26 01:22:47;;;;;;;13.07;6.85;;;;;;;-146.25;100.00;52619.63;2079465;28;26487;-73
2023/11/26 01:23:50;;;;;;;11.45;6.57;;;;;;;-146.25;100.00;52570.97;2088832;28;20960;-73
2023/11/26 01:24:52;;;;;;;14.40;7.07;;;;;;;-146.25;100.00;52591.25;2087835;28;25875;-73
2023/11/26 01:25:53;;;;;;;10.50;6.13;;;;;;;-146.25;100.00;52595.28;2080652;28;30266;-73
2023/11/26 01:26:57;;;;;;;17.02;7.10;;;;;;;-146.25;100.00;52605.44;2079651;28;33689;-74
2023/11/26 01:27:59;;;;;;;14.48;6.35;;;;;;;-146.25;100.00;52619.63;2080344;28;28308;-73
2023/11/26 01:29:01;;;;;;;11.95;6.30;;;;;;;-146.25;100.00;52607.47;2088075;28;20101;-73
2023/11/26 01:30:05;;;;;;;9.32;5.50;;;;;;;-146.25;100.00;52587.19;2081035;28;20185;-73
2023/11/26 01:31:11;;;;;;;13.93;6.72;;;;;;;-146.25;100.00;52585.16;2079680;28;30506;-73
2023/11/26 01:32:13;;;;;;;13.77;6.60;;;;;;;-146.25;100.00;52625.72;2089414;28;20045;-74
2023/11/26 01:33:16;;;;;;;14.93;6.13;;;;;;;-146.25;100.00;52611.50;2088400;28;25111;-74
2023/11/26 01:34:18;;;;;;;11.98;5.50;;;;;;;-146.25;100.00;52615.56;2088143;28;27894;-72
2023/11/26 01:35:22;;;;;;;16.10;7.10;;;;;;;-146.25;100.00;52585.16;2088319;28;20802;-73
2023/11/26 01:36:24;;;;;;;13.63;6.25;;;;;;;-146.25;100.00;52605.44;2087900;28;30669;-73
2023/11/26 01:37:26;;;;;;;9.60;5.60;;;;;;;-146.25;100.00;52575.00;2088300;28;20837;-74
2023/11/26 01:38:28;;;;;;;8.52;5.25;;;;;;;-146.25;100.00;52585.16;2088470;28;20917;-73
2023/11/26 01:39:30;;;;;;;14.48;6.75;;;;;;;-146.25;100.00;52619.63;2087926;28;22944;-74
2023/11/26 01:40:38;;;;;;;10.13;5.40;;;;;;;-146.25;100.00;52587.19;2087753;28;27109;-74
2023/11/26 01:41:41;;;;;;;8.45;5.13;;;;;;;-146.25;100.00;52601.38;2088080;28;20080;-74
2023/11/26 01:42:44;;;;;;;11.32;5.55;;;;;;;-146.25;100.00;52613.53;2087664;28;28886;-74
2023/11/26 01:43:45;;;;;;;9.85;5.50;;;;;;;-146.25;100.00;52623.69;2079737;28;29922;-74
2023/11/26 01:44:49;;;;;;;10.32;6.13;;;;;;;-146.25;100.00;52579.06;2080086;28;20219;-74
2023/11/26 01:46:12;;;;;;;10.93;6.40;;;;;;;-146.25;100.00;52589.22;2080225;28;20274;-75
2023/11/26 01:47:14;;;;;;;11.65;6.70;;;;;;;-146.25;100.00;52603.41;2087770;28;32689;-74
2023/11/26 01:48:15;;;;;;;12.35;6.50;;;;;;;-146.25;100.00;52595.28;2088132;28;31520;-75
2023/11/26 01:49:18;;;;;;;13.95;7.55;;;;;;;-146.25;100.00;52593.25;2079529;28;20554;-75
2023/11/26 01:50:22;;;;;;;12.23;6.47;;;;;;;-146.25;100.00;52609.50;2080442;28;20212;-74
2023/11/26 01:51:28;;;;;;;14.15;6.95;;;;;;;-146.25;100.00;52595.28;2087992;28;24098;-75
2023/11/26 01:52:33;;;;;;;9.98;6.10;;;;;;;-146.25;100.00;52575.00;2079132;28;25292;-75
2023/11/26 01:53:38;;;;;;;11.77;6.57;;;;;;;-146.25;100.00;52605.44;2080356;28;20116;-75
2023/11/26 01:54:43;;;;;;;11.15;5.78;;;;;;;-146.25;100.00;52623.69;2087823;28;29960;-74
2023/11/26 01:55:45;;;;;;;13.85;6.97;;;;;;;-146.25;100.00;52589.22;2087930;28;20045;-74
2023/11/26 01:56:47;;;;;;;10.18;5.78;;;;;;;-146.25;100.00;52621.66;2088236;28;20135;-75
2023/11/26 01:57:52;;;;;;;12.80;6.07;;;;;;;-146.25;100.00;52611.50;2071686;28;20045;-74
2023/11/26 01:58:56;;;;;;;11.43;5.43;;;;;;;-146.25;100.00;52599.34;2065122;28;20046;-75
2023/11/26 01:59:59;;;;;;;9.45;4.95;;;;;;;-146.25;100.00;52595.28;2080166;28;20226;-74
2023/11/26 02:01:01;;;;;;;11.98;6.03;;;;;;;-146.25;100.00;52609.50;2079807;28;20045;-75
2023/11/26 02:02:03;;;;;;;11.45;6.07;;;;;;;-146.25;100.00;52601.38;2079904;28;20092;-75
2023/11/26 02:03:06;;;;;;;11.63;6.68;;;;;;;-146.25;100.00;52570.97;2087899;28;30042;-75
2023/11/26 02:04:08;;;;;;;8.98;5.60;;;;;;;-146.25;100.00;52603.41;2087426;28;28548;-75
2023/11/26 02:05:11;;;;;;;13.02;6.00;;;;;;;-146.25;100.00;52635.84;2080351;28;26750;-76
2023/11/26 02:06:16;;;;;;;10.13;5.90;;;;;;;-146.25;100.00;52583.13;2088126;28;20038;-75
2023/11/26 02:07:18;;;;;;;14.50;6.15;;;;;;;-146.25;100.00;52609.50;2087752;28;20822;-74
2023/11/26 02:08:23;;;;;;;9.18;6.10;;;;;;;-146.25;100.00;52639.91;2087708;28;30166;-75
2023/11/26 02:09:25;;;;;;;10.88;5.10;;;;;;;-146.25;100.00;52595.28;2088167;28;20937;-76
2023/11/26 02:10:27;;;;;;;11.23;5.93;;;;;;;-146.25;100.00;52589.22;2088018;28;20038;-75
2023/11/26 02:11:30;;;;;;;9.70;5.80;;;;;;;-146.25;100.00;52581.09;2088143;28;28122;-76
2023/11/26 02:12:33;;;;;;;11.77;6.13;;;;;;;-146.25;100.00;52601.38;2079846;28;20050;-76
2023/11/26 02:13:47;;;;;;;10.25;6.50;;;;;;;-146.25;100.00;52581.09;2080237;28;20787;-76
2023/11/26 02:14:49;;;;;;;13.15;6.70;;;;;;;-146.25;100.00;52607.47;2086329;28;22100;-76
2023/11/26 02:15:52;;;;;;;15.57;7.55;;;;;;;-146.25;100.00;52589.22;2080425;28;27598;-77
2023/11/26 02:16:54;;;;;;;10.90;5.97;;;;;;;-146.25;100.00;52627.75;2087450;28;28701;-76
2023/11/26 02:17:57;;;;;;;11.00;6.28;;;;;;;-146.25;100.00;52579.06;2079900;28;20041;-76
2023/11/26 02:19:00;;;;;;;13.32;6.28;;;;;;;-146.25;100.00;52617.59;2079553;28;29445;-76
2023/11/26 02:20:04;;;;;;;12.80;7.00;;;;;;;-146.25;100.00;52583.13;2080217;28;29141;-76
2023/11/26 02:21:09;;;;;;;16.83;7.75;;;;;;;-146.25;100.00;52639.91;2087981;28;20162;-76
2023/11/26 02:22:13;;;;;;;11.95;7.20;;;;;;;-146.25;100.00;52579.06;2080406;28;20969;-76
2023/11/26 02:23:15;;;;;;;13.32;7.95;;;;;;;-146.25;100.00;52570.97;2080069;28;20191;-76
2023/11/26 02:24:24;;;;;;;14.68;7.90;;;;;;;-146.25;100.00;52542.56;2087923;28;21398;-77
2023/11/26 02:25:30;;;;;;;14.67;7.53;;;;;;;-146.25;100.00;52603.41;2079353;28;30594;-76
2023/11/26 02:26:32;;;;;;;13.85;7.40;;;;;;;-146.25;100.00;52623.69;2080268;28;25998;-77
2023/11/26 02:27:33;;;;;;;11.05;7.03;;;;;;;-146.25;100.00;52564.88;2087039;28;30545;-76
2023/11/26 02:28:41;;;;;;;14.27;6.63;;;;;;;-146.25;100.00;52599.34;2080015;28;34467;-77
2023/11/26 02:29:43;;;;;;;10.65;5.72;;;;;;;-146.25;100.00;52597.31;2079468;28;20038;-77
2023/11/26 02:30:45;;;;;;;12.20;6.90;;;;;;;-146.25;100.00;52605.44;2079452;28;25399;-76
2023/11/26 02:31:49;;;;;;;9.65;5.63;;;;;;;-146.25;100.00;52556.75;2080048;28;20030;-77
2023/11/26 02:32:52;;;;;;;11.23;5.43;;;;;;;-146.25;100.00;52609.50;2088000;28;24238;-77
2023/11/26 02:33:53;;;;;;;10.63;6.10;;;;;;;-146.25;100.00;52589.22;2079493;28;27198;-77
2023/11/26 02:34:57;;;;;;;11.50;6.50;;;;;;;-146.25;100.00;52601.38;2079762;28;20041;-76
2023/11/26 02:35:59;;;;;;;11.85;6.13;;;;;;;-146.25;100.00;52607.47;2079148;28;35568;-76
2023/11/26 02:37:01;;;;;;;13.30;5.47;;;;;;;-146.25;100.00;52595.28;2079129;28;36824;-77
2023/11/26 02:38:04;;;;;;;11.15;5.70;;;;;;;-146.25;100.00;52603.41;2087302;28;31382;-77
2023/11/26 02:39:05;;;;;;;9.35;5.97;;;;;;;-146.25;100.00;52619.63;2087444;28;34504;-76
2023/11/26 02:40:08;;;;;;;8.18;5.47;;;;;;;-146.25;100.00;52639.91;2088101;28;20045;-77
2023/11/26 02:41:10;;;;;;;11.55;5.90;;;;;;;-146.25;100.00;52603.41;2079686;28;32967;-77
2023/11/26 02:42:12;;;;;;;10.68;6.00;;;;;;;-146.25;100.00;52609.50;2078972;28;31696;-78
2023/11/26 02:43:18;;;;;;;11.80;6.20;;;;;;;-146.25;100.00;52554.75;2079762;28;28687;-76
2023/11/26 02:44:22;;;;;;;10.38;5.47;;;;;;;-146.25;100.00;52611.50;2080460;28;20442;-76
2023/11/26 02:45:25;;;;;;;8.52;5.30;;;;;;;-146.25;100.00;52579.06;2080842;28;20042;-76
2023/11/26 02:46:27;;;;;;;12.98;6.53;;;;;;;-146.25;100.00;52635.84;2079754;28;28664;-76
2023/11/26 02:47:32;;;;;;;9.75;5.75;;;;;;;-146.25;100.00;52629.75;2080319;28;20042;-77
2023/11/26 02:48:34;;;;;;;11.32;7.45;;;;;;;-146.25;100.00;52613.53;2079993;28;27623;-77
2023/11/26 02:49:36;;;;;;;9.68;5.63;;;;;;;-146.25;100.00;52625.72;2079755;28;34685;-76
2023/11/26 02:50:41;;;;;;;12.25;6.40;;;;;;;-146.25;100.00;52591.25;2080666;28;20049;-76
2023/11/26 02:51:43;;;;;;;13.07;5.80;;;;;;;-146.25;100.00;52641.94;2079855;28;33540;-76
2023/11/26 02:52:45;;;;;;;10.13;5.55;;;;;;;-146.25;100.00;52603.41;2078895;28;34199;-76
2023/11/26 02:53:46;;;;;;;8.52;6.03;;;;;;;-146.25;100.00;52581.09;2080298;28;23914;-77
2023/11/26 02:54:48;;;;;;;8.63;5.57;;;;;;;-146.25;100.00;52605.44;2079684;28;30641;-76
2023/11/26 02:55:50;;;;;;;9.82;6.13;;;;;;;-146.25;100.00;52609.50;2087807;28;20041;-76
2023/11/26 02:56:52;;;;;;;11.52;5.65;;;;;;;-146.25;100.00;52625.72;2087316;28;26582;-77
2023/11/26 02:57:54;;;;;;;7.97;6.13;;;;;;;-146.25;100.00;52593.25;2087376;28;31546;-76
2023/11/26 02:58:58;;;;;;;11.30;6.63;;;;;;;-146.25;100.00;52595.28;2080516;28;20038;-77
2023/11/26 03:00:00;;;;;;;14.10;7.28;;;;;;;-146.25;100.00;52591.25;2087488;28;25436;-75
2023/11/26 03:01:04;;;;;;;8.95;6.13;;;;;;;-146.25;100.00;52585.16;2078622;28;20049;-77
2023/11/26 03:02:05;;;;;;;13.35;6.90;;;;;;;-146.25;100.00;52619.63;2079096;28;30568;-76
2023/11/26 03:03:12;;;;;;;9.60;5.80;;;;;;;-146.25;100.00;52581.09;2080275;28;20042;-77
2023/11/26 03:04:19;;;;;;;13.88;6.35;;;;;;;-146.25;100.00;52591.25;2079708;28;31926;-76
2023/11/26 03:05:22;;;;;;;6.53;4.78;;;;;;;-146.25;100.00;52603.41;2087734;28;20052;-76
2023/11/26 03:06:26;;;;;;;9.07;5.75;;;;;;;-146.25;100.00;52615.56;2079407;28;20045;-76
2023/11/26 03:07:30;;;;;;;9.43;6.30;;;;;;;-146.25;100.00;52607.47;2079437;28;33480;-77
2023/11/26 03:08:38;;;;;;;8.55;5.22;;;;;;;-146.25;100.00;52595.28;2079165;28;20849;-76
2023/11/26 03:14:04;;;;;;;;;;;;;;;-146.25;100.00;52611.50;2079336;28;31248;-76
2023/11/26 03:15:08;;;;;;;13.18;6.43;;;;;;;-146.25;100.00;52619.63;2082598;28;20746;-76
2023/11/26 03:16:18;;;;;;;11.27;6.38;;;;;;;-146.25;100.00;52637.88;2087900;28;20164;-76
2023/11/26 03:17:22;;;;;;;13.55;7.50;;;;;;;-146.25;100.00;52607.47;2086200;28;21147;-76
2023/11/26 03:18:24;;;;;;;13.05;7.53;;;;;;;-146.25;100.00;52609.50;2080034;28;24366;-76
2023/11/26 03:19:26;;;;;;;8.85;6.28;;;;;;;-146.25;100.00;52627.75;2078537;28;36242;-76
2023/11/26 03:20:28;;;;;;;17.67;7.97;;;;;;;-146.25;100.00;52599.34;2079809;28;20157;-76
2023/11/26 03:21:30;;;;;;;10.23;7.18;;;;;;;-146.25;100.00;52619.63;2087180;28;27732;-76
2023/11/26 03:22:32;;;;;;;12.57;7.72;;;;;;;-146.25;100.00;52566.91;2087461;28;24542;-76
2023/11/26 03:23:34;;;;;;;13.70;7.60;;;;;;;-146.25;100.00;52589.22;2080204;28;20045;-76
2023/11/26 03:24:39;;;;;;;12.60;8.30;;;;;;;-146.25;100.00;52591.25;2080431;28;20045;-75
2023/11/26 03:25:40;;;;;;;9.55;6.43;;;;;;;-146.25;100.00;52601.38;2079657;28;28845;-75
2023/11/26 03:26:42;;;;;;;13.00;8.13;;;;;;;-146.25;100.00;52619.63;2080569;28;20886;-77
2023/11/26 03:27:44;;;;;;;9.43;7.22;;;;;;;-146.25;100.00;52607.47;2079751;28;32626;-76
2023/11/26 03:28:47;;;;;;;9.88;6.60;;;;;;;-146.25;100.00;52615.56;2087395;28;21061;-77
2023/11/26 03:29:49;;;;;;;12.00;7.47;;;;;;;-146.25;100.00;52637.88;2087777;28;20030;-77
2023/11/26 03:30:52;;;;;;;10.05;6.75;;;;;;;-146.25;100.00;52595.28;2087692;28;28555;-77
2023/11/26 03:31:54;;;;;;;10.82;8.07;;;;;;;-146.25;100.00;52605.44;2078833;28;23110;-76
2023/11/26 03:32:57;;;;;;;13.10;7.20;;;;;;;-146.25;100.00;52591.25;2079789;28;20034;-77
2023/11/26 03:33:59;;;;;;;9.90;6.45;;;;;;;-146.25;100.00;52617.59;2079737;28;25446;-76
2023/11/26 03:35:01;;;;;;;8.85;7.05;;;;;;;-146.25;100.00;52605.44;2080062;28;26943;-76
2023/11/26 03:36:03;;;;;;;9.48;6.40;;;;;;;-146.25;100.00;52587.19;2079422;28;27810;-76
2023/11/26 03:37:06;;;;;;;11.95;7.00;;;;;;;-146.25;100.00;52595.28;2087189;28;34511;-76
2023/11/26 03:38:08;;;;;;;10.13;6.70;;;;;;;-146.25;100.00;52627.75;2087179;28;20034;-76
2023/11/26 03:39:18;;;;;;;11.40;6.20;;;;;;;-146.25;100.00;52597.31;2080021;28;20042;-75
2023/11/26 03:40:21;;;;;;;9.15;5.65;;;;;;;-146.25;100.00;52607.47;2078398;28;35798;-76
2023/11/26 03:41:23;;;;;;;12.77;7.50;;;;;;;-146.25;100.00;52609.50;2079230;28;20883;-76
2023/11/26 03:42:24;;;;;;;9.68;7.03;;;;;;;-146.25;100.00;52583.13;2086625;28;30577;-77
2023/11/26 03:43:29;;;;;;;8.68;6.65;;;;;;;-146.25;100.00;52577.03;2079524;28;27860;-76
2023/11/26 03:44:31;;;;;;;17.52;8.38;;;;;;;-146.25;100.00;52619.63;2079678;28;27795;-76
2023/11/26 03:45:33;;;;;;;10.45;7.65;;;;;;;-146.25;100.00;52627.75;2078376;28;33162;-75
2023/11/26 03:46:37;;;;;;;14.20;7.35;;;;;;;-146.25;100.00;52585.16;2079114;28;20034;-77
2023/11/26 03:47:40;;;;;;;13.52;7.78;;;;;;;-146.25;100.00;52631.78;2079034;28;27861;-75
2023/11/26 03:48:45;;;;;;;15.50;7.88;;;;;;;-146.25;100.00;52609.50;2070915;28;27189;-76
2023/11/26 03:49:48;;;;;;;9.98;6.20;;;;;;;-146.25;100.00;52591.25;2080059;28;20681;-77
2023/11/26 03:50:50;;;;;;;10.82;6.35;;;;;;;-146.25;100.00;52587.19;2087102;28;29630;-77
2023/11/26 03:51:51;;;;;;;12.10;8.18;;;;;;;-146.25;100.00;52566.91;2079741;28;24998;-77
2023/11/26 03:52:54;;;;;;;13.38;8.02;;;;;;;-146.25;100.00;52595.28;2078385;28;25480;-77
2023/11/26 03:53:56;;;;;;;13.23;7.28;;;;;;;-146.25;100.00;52587.19;2071296;28;31741;-76
2023/11/26 03:54:58;;;;;;;12.20;7.78;;;;;;;-146.25;100.00;52587.19;2079052;28;20121;-76
2023/11/26 03:56:00;;;;;;;12.73;8.32;;;;;;;-146.25;100.00;52591.25;2078352;28;36385;-76
2023/11/26 03:57:02;;;;;;;11.85;7.53;;;;;;;-146.25;100.00;52617.59;2078542;28;27489;-76
2023/11/26 03:58:06;;;;;;;12.27;8.25;;;;;;;-146.25;100.00;52639.91;2086835;28;30320;-77
2023/11/26 03:59:09;;;;;;;14.10;9.23;;;;;;;-146.25;100.00;52601.38;2079035;28;20476;-76
2023/11/26 04:00:13;;;;;;;14.45;9.32;;;;;;;-146.25;100.00;52591.25;2079578;28;20516;-77
2023/11/26 04:01:17;;;;;;;17.55;9.23;;;;;;;-146.25;100.00;52564.88;2079316;28;35771;-77
2023/11/26 04:02:19;;;;;;;14.38;9.27;;;;;;;-146.25;100.00;52589.22;2086840;28;32401;-77
2023/11/26 04:03:21;;;;;;;15.88;9.52;;;;;;;-146.25;100.00;52581.09;2087057;28;25206;-77
2023/11/26 04:04:23;;;;;;;16.48;9.70;;;;;;;-146.25;100.00;52583.13;2079041;28;29357;-76
2023/11/26 04:05:25;;;;;;;11.32;9.35;;;;;;;-146.25;100.00;52609.50;2071602;28;20038;-77
2023/11/26 04:06:29;;;;;;;12.27;8.63;;;;;;;-146.25;100.00;52599.34;2078755;28;31375;-76
2023/11/26 04:07:31;;;;;;;16.33;10.00;;;;;;;-146.25;100.00;52577.03;2086998;28;29197;-77
2023/11/26 04:08:33;;;;;;;16.08;9.20;;;;;;;-146.25;100.00;52591.25;2087471;28;20077;-76
2023/11/26 04:09:35;;;;;;;15.27;9.80;;;;;;;-146.25;100.00;52607.47;2087366;28;37404;-77
2023/11/26 04:10:37;;;;;;;14.93;8.15;;;;;;;-146.25;100.00;52579.06;2088917;28;20057;-76
2023/11/26 04:11:44;;;;;;;13.68;8.70;;;;;;;-146.25;100.00;52611.50;2088746;28;20042;-77
2023/11/26 04:12:46;;;;;;;13.85;9.25;;;;;;;-146.25;100.00;52627.75;2080948;28;20038;-76
2023/11/26 04:13:48;;;;;;;11.48;8.52;;;;;;;-146.25;100.00;52613.53;2080297;28;27623;-77
2023/11/26 04:15:03;;;;;;;10.70;8.65;;;;;;;-146.25;100.00;52597.31;2080829;28;33995;-77
2023/11/26 04:16:10;;;;;;;12.05;7.95;;;;;;;-146.25;100.00;52623.69;2088947;28;26421;-77
2023/11/26 04:17:12;;;;;;;15.65;8.73;;;;;;;-146.25;100.00;52603.41;2087664;28;31049;-77
2023/11/26 04:18:16;;;;;;;14.70;9.68;;;;;;;-146.25;100.00;52639.91;2081312;28;27394;-78
2023/11/26 04:19:17;;;;;;;14.00;8.52;;;;;;;-146.25;100.00;52593.25;2079626;28;39091;-79
2023/11/26 04:20:19;;;;;;;13.25;7.95;;;;;;;-146.25;100.00;52607.47;2080254;28;36906;-76
2023/11/26 04:21:22;;;;;;;12.57;9.05;;;;;;;-146.25;100.00;52583.13;2081221;28;20042;-77
2023/11/26 04:22:27;;;;;;;13.85;8.68;;;;;;;-146.25;100.00;52595.28;2088319;28;35897;-77
2023/11/26 04:23:29;;;;;;;13.88;9.27;;;;;;;-146.25;100.00;52570.97;2080279;28;36633;-76
2023/11/26 04:24:31;;;;;;;13.73;8.05;;;;;;;-146.25;100.00;52660.19;2080101;28;33776;-78
2023/11/26 04:25:36;;;;;;;13.57;8.88;;;;;;;-146.25;100.00;52601.38;2080345;28;35852;-78
2023/11/26 04:26:38;;;;;;;12.73;7.97;;;;;;;-146.25;100.00;52593.25;2081823;28;20041;-78
2023/11/26 04:27:46;;;;;;;12.30;7.95;;;;;;;-146.25;100.00;52613.53;2087988;28;36805;-77
2023/11/26 04:28:48;;;;;;;13.95;8.85;;;;;;;-146.25;100.00;52591.25;2087362;28;35408;-78
2023/11/26 04:29:50;;;;;;;13.23;8.48;;;;;;;-146.25;100.00;52611.50;2088291;28;34453;-77
2023/11/26 04:30:52;;;;;;;15.20;8.05;;;;;;;-146.25;100.00;52591.25;2088793;28;20786;-78
2023/11/26 04:31:54;;;;;;;12.70;8.60;;;;;;;-146.25;100.00;52611.50;2080631;28;20038;-76
2023/11/26 04:32:56;;;;;;;13.50;7.88;;;;;;;-146.25;100.00;52587.19;2072000;28;39395;-78
2023/11/26 04:34:02;;;;;;;12.27;8.55;;;;;;;-146.25;100.00;52611.50;2080056;28;36139;-76
2023/11/26 04:35:05;;;;;;;11.18;8.10;;;;;;;-146.25;100.00;52607.47;2080800;28;32779;-79
2023/11/26 04:36:08;;;;;;;12.43;8.05;;;;;;;-146.25;100.00;52652.06;2087894;28;32654;-78
2023/11/26 04:37:14;;;;;;;11.57;8.43;;;;;;;-146.25;100.00;52599.34;2089001;28;20045;-79
2023/11/26 04:38:16;;;;;;;12.07;8.02;;;;;;;-146.25;100.00;52623.69;2080855;28;37860;-78
2023/11/26 04:39:17;;;;;;;14.82;8.00;;;;;;;-146.25;100.00;52595.28;2080828;28;31579;-79
2023/11/26 04:40:20;;;;;;;12.70;7.05;;;;;;;-146.25;100.00;52639.91;2080782;28;33682;-77
2023/11/26 04:41:26;;;;;;;13.75;8.30;;;;;;;-146.25;100.00;52613.53;2080391;28;33105;-78
2023/11/26 04:42:28;;;;;;;15.23;7.70;;;;;;;-146.25;100.00;52575.00;2081142;28;20041;-78
2023/11/26 04:43:29;;;;;;;12.38;7.63;;;;;;;-146.25;100.00;52603.41;2080858;28;35653;-78
2023/11/26 04:44:32;;;;;;;13.55;8.13;;;;;;;-146.25;100.00;52595.28;2080355;28;35449;-78
2023/11/26 04:45:34;;;;;;;12.50;8.52;;;;;;;-146.25;100.00;52609.50;2080883;28;32083;-77
2023/11/26 04:46:36;;;;;;;14.68;8.60;;;;;;;-146.25;100.00;52593.25;2080492;28;32596;-77
2023/11/26 04:47:38;;;;;;;16.98;8.90;;;;;;;-146.25;100.00;52585.16;2088505;28;20096;-79